Time;durP1;ratioP1;P1;durP2;ratioP2;P2;SDS_P1;SDS_P2;PMS_P1;PMS_P2;Temp;Humidity;BMP_temperature;BMP_pressure;BME280_temperature;BME280_humidity;BME280_pressure;Samples;Min_cycle;Max_cycle;Signal;HPM_P1;HPM_P2
2023/01/07 00:01:24;;;;;;;1999.90;999.90;;;;;;;8.50;100.00;95683.19;5095834;28;20255;-62
2023/01/07 00:03:51;;;;;;;1999.90;999.90;;;;;;;8.53;100.00;95668.81;5095341;28;20231;-61
2023/01/07 00:06:28;;;;;;;1999.90;999.90;;;;;;;8.63;100.00;95672.75;5095968;28;20222;-59
2023/01/07 00:08:55;;;;;;;1999.90;999.90;;;;;;;8.65;100.00;95671.19;5096056;28;20180;-62
2023/01/07 00:11:23;;;;;;;1999.90;999.90;;;;;;;8.63;100.00;95654.47;5095468;28;20217;-62
2023/01/07 00:13:50;;;;;;;1999.90;999.90;;;;;;;8.60;100.00;95666.09;5095880;28;20212;-62
2023/01/07 00:16:18;;;;;;;1999.90;999.90;;;;;;;8.55;100.00;95663.78;5095087;28;20176;-61
2023/01/07 00:18:44;;;;;;;1999.90;999.90;;;;;;;8.53;100.00;95665.31;5095114;28;20171;-61
2023/01/07 00:21:12;;;;;;;1999.90;999.90;;;;;;;8.53;100.00;95668.03;5095683;28;20171;-62
2023/01/07 00:23:39;;;;;;;1999.90;999.90;;;;;;;8.51;100.00;95662.97;5095810;28;20168;-60
2023/01/07 00:26:13;;;;;;;1999.90;999.90;;;;;;;8.53;100.00;95655.19;5095206;28;20169;-71
2023/01/07 00:28:40;;;;;;;1999.90;999.90;;;;;;;8.56;100.00;95657.16;5095649;28;20171;-71
2023/01/07 00:31:10;;;;;;;1999.90;999.90;;;;;;;8.55;100.00;95642.00;5094344;28;20220;-71
2023/01/07 00:33:43;;;;;;;1999.90;999.90;;;;;;;8.53;100.00;95647.03;5095592;28;20195;-71
2023/01/07 00:36:08;;;;;;;1999.90;999.90;;;;;;;8.52;100.00;95652.88;5095853;28;20302;-74
2023/01/07 00:38:35;;;;;;;1999.90;999.90;;;;;;;8.52;100.00;95653.63;5095227;28;20201;-73
2023/01/07 00:41:00;;;;;;;1999.90;999.90;;;;;;;8.52;100.00;95650.16;5094776;28;20173;-73
2023/01/07 00:43:26;;;;;;;1999.90;999.90;;;;;;;8.50;100.00;95649.75;5094779;28;20177;-72
2023/01/07 00:45:52;;;;;;;1999.90;999.90;;;;;;;8.51;100.00;95641.22;5094624;28;20176;-72
2023/01/07 00:48:17;;;;;;;1999.90;999.90;;;;;;;8.54;100.00;95645.09;5095106;28;20259;-73
2023/01/07 00:50:46;;;;;;;1999.90;999.90;;;;;;;8.54;100.00;95645.88;5094360;28;20172;-73
2023/01/07 00:53:11;;;;;;;1999.90;999.90;;;;;;;8.57;100.00;95645.13;5095189;28;20218;-73
2023/01/07 00:55:37;;;;;;;1999.90;999.90;;;;;;;8.56;100.00;95649.00;5094277;28;20179;-74
2023/01/07 00:58:03;;;;;;;1999.90;999.90;;;;;;;8.54;100.00;95654.06;5095079;28;20179;-74
2023/01/07 01:00:28;;;;;;;1999.90;999.90;;;;;;;8.54;100.00;95656.78;5094227;28;20169;-61
2023/01/07 01:02:54;;;;;;;1999.90;999.90;;;;;;;8.53;100.00;95655.19;5094371;28;20168;-61
2023/01/07 01:05:20;;;;;;;1999.90;999.90;;;;;;;8.52;100.00;95645.47;5093960;28;20195;-61
2023/01/07 01:07:45;;;;;;;1999.90;999.90;;;;;;;8.54;100.00;95651.34;5094055;28;20176;-61
2023/01/07 01:10:14;;;;;;;1999.90;999.90;;;;;;;8.53;100.00;95649.75;5094419;28;20169;-61
2023/01/07 01:12:40;;;;;;;1999.90;999.90;;;;;;;8.50;100.00;95639.66;5094778;28;20177;-61
2023/01/07 01:15:11;;;;;;;1999.90;999.90;;;;;;;8.51;100.00;95641.22;5093786;28;20206;-61
2023/01/07 01:17:37;;;;;;;1999.90;999.90;;;;;;;8.47;100.00;95650.50;5094862;28;20196;-62
2023/01/07 01:20:04;;;;;;;1999.90;999.90;;;;;;;8.43;100.00;95650.50;5094102;28;20179;-70
2023/01/07 01:22:29;;;;;;;1999.90;999.90;;;;;;;8.46;100.00;95646.25;5094196;28;20168;-72
2023/01/07 01:24:54;;;;;;;1999.90;999.90;;;;;;;8.45;100.00;95648.16;5093813;28;20187;-72
2023/01/07 01:27:20;;;;;;;1999.90;999.90;;;;;;;8.49;100.00;95648.97;5093875;28;20165;-73
2023/01/07 01:29:45;;;;;;;1999.90;999.90;;;;;;;8.49;100.00;95638.06;5094104;28;20198;-73
2023/01/07 01:32:11;;;;;;;1999.90;999.90;;;;;;;8.49;100.00;95632.63;5093653;28;20292;-72
2023/01/07 01:34:36;;;;;;;1999.90;999.90;;;;;;;8.48;100.00;95636.53;5094346;28;20291;-73
2023/01/07 01:37:03;;;;;;;1999.90;999.90;;;;;;;8.44;100.00;95630.28;5094003;28;20173;-75
2023/01/07 01:39:28;;;;;;;1999.90;999.90;;;;;;;8.43;100.00;95628.75;5093894;28;20169;-60
2023/01/07 01:41:53;;;;;;;1999.90;999.90;;;;;;;8.45;100.00;95634.56;5093740;28;20234;-72
2023/01/07 01:44:33;;;;;;;1999.90;999.90;;;;;;;8.46;100.00;95629.91;5093758;28;20168;-74
2023/01/07 01:47:00;;;;;;;1999.90;999.90;;;;;;;8.45;100.00;95629.13;5093881;28;20187;-73
2023/01/07 01:49:34;;;;;;;1999.90;999.90;;;;;;;8.47;100.00;95626.03;5093538;28;20241;-73
2023/01/07 01:52:04;;;;;;;1999.90;999.90;;;;;;;8.47;100.00;95624.09;5093538;28;20202;-73
2023/01/07 01:54:31;;;;;;;1999.90;999.90;;;;;;;8.49;100.00;95621.75;5094395;28;20200;-73
2023/01/07 01:57:00;;;;;;;1999.90;999.90;;;;;;;8.44;100.00;95622.13;5093174;28;20170;-61
2023/01/07 01:59:29;;;;;;;1999.90;999.90;;;;;;;8.46;100.00;95624.47;5093648;28;20168;-60
2023/01/07 02:01:55;;;;;;;1999.90;999.90;;;;;;;8.43;100.00;95623.28;5093820;28;20169;-60
2023/01/07 02:04:23;;;;;;;1999.90;999.90;;;;;;;8.44;100.00;95624.06;5093454;28;20192;-60
2023/01/07 02:07:08;;;;;;;1999.90;999.90;;;;;;;8.46;100.00;95616.31;5093707;28;20176;-60
2023/01/07 02:09:34;;;;;;;1999.90;999.90;;;;;;;8.46;100.00;95619.03;5094049;28;20186;-59
2023/01/07 02:12:09;;;;;;;1999.90;999.90;;;;;;;8.48;100.00;95613.97;5094168;28;20183;-59
2023/01/07 02:15:22;;;;;;;1999.90;999.90;;;;;;;8.44;100.00;95602.28;5093532;28;20230;-71
2023/01/07 02:18:04;;;;;;;1999.90;999.90;;;;;;;8.42;100.00;95602.66;5055719;28;20173;-71
2023/01/07 02:20:29;;;;;;;1999.90;999.90;;;;;;;8.37;100.00;95602.25;5089553;28;20207;-71
2023/01/07 02:22:57;;;;;;;1999.90;999.90;;;;;;;8.34;100.00;95601.09;5093997;28;20211;-72
2023/01/07 02:25:55;;;;;;;1999.90;999.90;;;;;;;8.31;100.00;95599.13;5093490;28;20263;-72
2023/01/07 02:28:53;;;;;;;1999.90;999.90;;;;;;;8.34;100.00;95594.91;5075778;28;20185;-73
2023/01/07 02:31:55;;;;;;;1999.90;999.90;;;;;;;8.36;100.00;95595.28;5093906;28;20223;-72
2023/01/07 02:34:26;;;;;;;1999.90;999.90;;;;;;;8.36;100.00;95598.00;5092933;28;20201;-63
2023/01/07 02:37:23;;;;;;;1999.90;999.90;;;;;;;8.34;100.00;95592.94;5093201;28;20183;-58
2023/01/07 02:39:59;;;;;;;1999.90;999.90;;;;;;;8.33;100.00;95588.66;5070797;28;20190;-58
2023/01/07 02:43:03;;;;;;;1999.90;999.90;;;;;;;8.32;100.00;95587.13;5093506;28;20262;-59
2023/01/07 02:45:32;;;;;;;1999.90;999.90;;;;;;;8.34;100.00;95592.16;5093003;28;20175;-58
2023/01/07 02:48:02;;;;;;;1999.90;999.90;;;;;;;8.29;100.00;95579.72;5093508;28;20551;-58
2023/01/07 02:50:28;;;;;;;1999.90;999.90;;;;;;;8.32;100.00;95578.94;5093203;28;20172;-63
2023/01/07 02:52:53;;;;;;;1999.90;999.90;;;;;;;8.31;100.00;95582.81;5093043;28;20167;-58
2023/01/07 02:55:27;;;;;;;1999.90;999.90;;;;;;;8.32;100.00;95580.88;5093773;28;20181;-58
2023/01/07 02:57:58;;;;;;;1999.90;999.90;;;;;;;8.32;100.00;95578.94;5093121;28;20171;-58
2023/01/07 03:00:38;;;;;;;1999.90;999.90;;;;;;;8.36;100.00;95574.28;5093331;28;20177;-58
2023/01/07 03:03:19;;;;;;;1999.90;999.90;;;;;;;8.29;100.00;95579.72;5093546;28;20182;-58
2023/01/07 03:05:51;;;;;;;1999.90;999.90;;;;;;;8.27;100.00;95576.59;5093158;28;20200;-58
2023/01/07 03:08:34;;;;;;;1999.90;999.90;;;;;;;8.32;100.00;95573.50;5092862;28;20242;-58
2023/01/07 03:11:03;;;;;;;1999.90;999.90;;;;;;;8.32;100.00;95573.50;5096352;28;20265;-60
2023/01/07 03:13:36;;;;;;;1999.90;999.90;;;;;;;8.33;100.00;95566.09;5095950;28;20204;-61
2023/01/07 03:16:08;;;;;;;1999.90;999.90;;;;;;;8.29;100.00;95560.66;5096286;28;20177;-61
2023/01/07 03:19:09;;;;;;;1999.90;999.90;;;;;;;8.27;100.00;95565.69;5097137;28;20181;-62
2023/01/07 03:21:36;;;;;;;1999.90;999.90;;;;;;;8.24;100.00;95561.06;5073742;28;20264;-62
2023/01/07 03:24:04;;;;;;;1999.90;999.90;;;;;;;8.26;100.00;95557.91;5096342;28;20177;-62
2023/01/07 03:26:33;;;;;;;1999.90;999.90;;;;;;;8.26;100.00;95557.91;5096129;28;20208;-62
2023/01/07 03:29:01;;;;;;;1999.90;999.90;;;;;;;8.27;100.00;95557.53;5096403;28;20263;-74
2023/01/07 03:31:28;;;;;;;1999.90;999.90;;;;;;;8.28;100.00;95556.41;5095859;28;20217;-61
2023/01/07 03:33:56;;;;;;;1999.90;999.90;;;;;;;8.27;100.00;95559.50;5096943;28;20210;-61
2023/01/07 03:36:28;;;;;;;1999.90;999.90;;;;;;;8.26;100.00;95556.00;5095797;28;20184;-62
2023/01/07 03:38:55;;;;;;;1999.90;999.90;;;;;;;8.23;100.00;95545.88;5096471;28;20173;-62
2023/01/07 03:44:05;;;;;;;1999.90;999.90;;;;;;;8.17;100.00;95552.84;5097414;28;20175;-62
2023/01/07 03:46:33;;;;;;;1999.90;999.90;;;;;;;8.12;100.00;95553.19;5095931;28;20176;-61
2023/01/07 03:48:58;;;;;;;1999.90;999.90;;;;;;;8.08;100.00;95552.41;5095848;28;20173;-61
2023/01/07 03:51:23;;;;;;;1999.90;999.90;;;;;;;8.06;100.00;95543.84;5095788;28;20179;-62
2023/01/07 03:53:49;;;;;;;1999.90;999.90;;;;;;;8.07;100.00;95547.34;5095876;28;20200;-61
2023/01/07 03:56:14;;;;;;;1999.90;999.90;;;;;;;8.06;100.00;95543.06;5096311;28;20181;-61
2023/01/07 03:58:39;;;;;;;1999.90;999.90;;;;;;;8.02;100.00;95548.50;5096192;28;20180;-61
2023/01/07 04:01:04;;;;;;;1999.90;999.90;;;;;;;7.92;100.00;95535.63;5095701;28;20255;-61
2023/01/07 04:03:30;;;;;;;1999.90;999.90;;;;;;;7.91;100.00;95536.81;5095691;28;20177;-61
2023/01/07 04:05:55;;;;;;;1999.90;999.90;;;;;;;7.90;100.00;95535.22;5096091;28;20176;-74
2023/01/07 04:08:20;;;;;;;1999.90;999.90;;;;;;;7.86;100.00;95523.56;5095114;28;20193;-62
2023/01/07 04:10:46;;;;;;;1999.90;999.90;;;;;;;7.88;100.00;95520.47;5095301;28;20186;-62
2023/01/07 04:13:11;;;;;;;1999.90;999.90;;;;;;;7.84;100.00;95517.75;5095414;28;20204;-62
2023/01/07 04:15:37;;;;;;;1999.90;999.90;;;;;;;7.90;100.00;95521.63;5095222;28;20184;-62
2023/01/07 04:18:02;;;;;;;1999.90;999.90;;;;;;;7.83;100.00;95518.88;5094809;28;20180;-61
2023/01/07 04:20:27;;;;;;;1999.90;999.90;;;;;;;7.74;100.00;95504.88;5094889;28;20190;-62
2023/01/07 04:22:53;;;;;;;1999.90;999.90;;;;;;;7.67;100.00;95504.84;5095208;28;20172;-60
2023/01/07 04:25:18;;;;;;;1999.90;999.90;;;;;;;7.64;100.00;95500.19;5095043;28;20186;-72
2023/01/07 04:27:43;;;;;;;1999.90;999.90;;;;;;;7.62;100.00;95486.19;5095496;28;20262;-61
2023/01/07 04:30:09;;;;;;;1999.90;999.90;;;;;;;7.58;100.00;95479.19;5094726;28;20262;-61
2023/01/07 04:32:34;;;;;;;1999.90;999.90;;;;;;;7.67;100.00;95471.44;5094604;28;20219;-61
2023/01/07 04:35:00;;;;;;;1999.90;999.90;;;;;;;7.68;100.00;95468.34;5094949;28;20266;-61
2023/01/07 04:37:25;;;;;;;1999.90;999.90;;;;;;;7.55;100.00;95467.16;5094882;28;20178;-61
2023/01/07 04:39:50;;;;;;;1999.90;999.90;;;;;;;7.59;100.00;95476.09;5095420;28;20266;-61
2023/01/07 04:42:16;;;;;;;1999.90;999.90;;;;;;;7.58;100.00;95468.31;5095509;28;20317;-61
2023/01/07 04:44:42;;;;;;;1999.90;999.90;;;;;;;7.43;100.00;95462.03;5094822;28;20193;-59
2023/01/07 04:47:07;;;;;;;1999.90;999.90;;;;;;;7.34;100.00;95450.75;5094855;28;20176;-58
2023/01/07 04:49:33;;;;;;;1999.90;999.90;;;;;;;7.30;100.00;95447.22;5095218;28;20240;-58
2023/01/07 04:51:58;;;;;;;1999.90;999.90;;;;;;;7.28;100.00;95433.25;5095033;28;20176;-59
2023/01/07 04:54:23;;;;;;;1999.90;999.90;;;;;;;7.26;100.00;95430.16;5094422;28;20192;-59
2023/01/07 04:56:49;;;;;;;1999.90;999.90;;;;;;;7.21;100.00;95421.59;5095067;28;20175;-58
2023/01/07 04:59:14;;;;;;;1999.90;999.90;;;;;;;7.20;100.00;95422.72;5094561;28;20168;-62
2023/01/07 05:01:39;;;;;;;1999.90;999.90;;;;;;;7.11;100.00;95417.66;5095109;28;20213;-62
2023/01/07 05:04:05;;;;;;;1999.90;999.90;;;;;;;7.10;100.00;95418.78;5094349;28;20191;-73
2023/01/07 05:06:30;;;;;;;1999.90;999.90;;;;;;;7.07;100.00;95411.44;5094952;28;20236;-73
2023/01/07 05:08:56;;;;;;;1999.90;999.90;;;;;;;7.00;100.00;95408.69;5094914;28;20179;-73
2023/01/07 05:11:21;;;;;;;1999.90;999.90;;;;;;;6.89;100.00;95405.13;5094215;28;20166;-73
2023/01/07 05:13:49;;;;;;;1999.90;999.90;;;;;;;6.78;100.00;95396.91;5093889;28;20195;-73
2023/01/07 05:16:16;;;;;;;1999.90;999.90;;;;;;;6.69;100.00;95401.91;5094202;28;20195;-73
2023/01/07 05:18:41;;;;;;;1999.90;999.90;;;;;;;6.62;100.00;95390.22;5094036;28;20168;-59
2023/01/07 05:21:06;;;;;;;1999.90;999.90;;;;;;;6.54;100.00;95383.97;5094264;28;20183;-60
2023/01/07 05:23:32;;;;;;;1999.90;999.90;;;;;;;6.44;100.00;95378.44;5093751;28;20179;-60
2023/01/07 05:25:57;;;;;;;1999.90;999.90;;;;;;;6.36;100.00;95368.72;5094190;28;20177;-61
2023/01/07 05:28:22;;;;;;;1999.90;999.90;;;;;;;6.26;100.00;95356.63;5094281;28;20175;-60
2023/01/07 05:30:48;;;;;;;1999.90;999.90;;;;;;;6.19;100.00;95345.75;5093800;28;20249;-60
2023/01/07 05:33:13;;;;;;;1999.90;999.90;;;;;;;6.14;100.00;95337.19;5094021;28;20225;-60
2023/01/07 05:35:38;;;;;;;1999.90;999.90;;;;;;;6.04;100.00;95321.59;5093942;28;20222;-60
2023/01/07 05:38:04;;;;;;;1999.90;999.90;;;;;;;6.00;100.00;95315.38;5093606;28;20248;-61
2023/01/07 05:40:29;;;;;;;1999.90;999.90;;;;;;;5.93;100.00;95294.44;5094138;28;20395;-71
2023/01/07 05:42:54;;;;;;;1999.90;999.90;;;;;;;5.85;100.00;95281.19;5094255;28;20182;-71
2023/01/07 05:45:20;;;;;;;1999.90;999.90;;;;;;;5.76;100.00;95267.19;5094071;28;20182;-71
2023/01/07 05:47:46;;;;;;;1999.90;999.90;;;;;;;5.68;100.00;95249.31;5093668;28;20174;-71
2023/01/07 05:50:12;;;;;;;1999.90;999.90;;;;;;;5.62;100.00;95224.53;5094063;28;20174;-71
2023/01/07 05:52:37;;;;;;;1999.90;999.90;;;;;;;5.58;100.00;95206.69;5094194;28;20241;-73
2023/01/07 05:55:04;;;;;;;1999.90;999.90;;;;;;;5.52;100.00;95189.22;5093778;28;20247;-59
2023/01/07 05:57:29;;;;;;;1999.90;999.90;;;;;;;5.48;100.00;95177.59;5093790;28;20274;-61
2023/01/07 05:59:54;;;;;;;1999.90;999.90;;;;;;;5.42;100.00;95150.06;5093969;28;20220;-60
2023/01/07 06:02:20;;;;;;;1999.90;999.90;;;;;;;5.36;100.00;95139.97;5094290;28;20182;-61
2023/01/07 06:04:45;;;;;;;1999.90;999.90;;;;;;;5.36;100.00;95112.91;5093704;28;20204;-61
2023/01/07 06:07:10;;;;;;;1999.90;999.90;;;;;;;5.43;100.00;95104.84;5093638;28;20254;-61
2023/01/07 06:09:36;;;;;;;1999.90;999.90;;;;;;;5.37;100.00;95088.19;5094589;28;20178;-61
2023/01/07 06:12:01;;;;;;;1999.90;999.90;;;;;;;5.31;100.00;95078.06;5093716;28;20180;-61
2023/01/07 06:14:26;;;;;;;1999.90;999.90;;;;;;;5.27;100.00;95061.03;5093435;28;20203;-73
2023/01/07 06:16:52;;;;;;;1999.90;999.90;;;;;;;5.23;100.00;95054.81;5093373;28;20189;-58
2023/01/07 06:19:17;;;;;;;1999.90;999.90;;;;;;;5.20;100.00;95040.09;5093871;28;20169;-58
2023/01/07 06:21:42;;;;;;;1999.90;999.90;;;;;;;5.03;100.00;95034.59;5093296;28;20185;-58
2023/01/07 06:24:09;;;;;;;1999.90;999.90;;;;;;;4.92;100.00;95044.56;5093814;28;20251;-59
2023/01/07 06:26:34;;;;;;;1999.90;999.90;;;;;;;4.85;100.00;95029.03;5093508;28;20179;-59
2023/01/07 06:28:59;;;;;;;1999.90;999.90;;;;;;;4.93;100.00;95013.66;5093658;28;20271;-59
2023/01/07 06:31:25;;;;;;;1999.90;999.90;;;;;;;4.92;100.00;95002.03;5093482;28;20253;-60
2023/01/07 06:33:50;;;;;;;1999.90;999.90;;;;;;;4.81;100.00;94989.59;5093407;28;20229;-72
2023/01/07 06:36:15;;;;;;;1999.90;999.90;;;;;;;4.71;100.00;94930.81;5093392;28;20174;-59
2023/01/07 06:38:41;;;;;;;1999.90;999.90;;;;;;;4.74;100.00;94897.63;5093124;28;20259;-59
2023/01/07 06:41:07;;;;;;;1999.90;999.90;;;;;;;4.64;100.00;94877.47;5093216;28;20179;-58
2023/01/07 06:43:32;;;;;;;1999.90;999.90;;;;;;;4.58;100.00;94861.97;5095973;28;20177;-58
2023/01/07 06:45:57;;;;;;;1999.90;999.90;;;;;;;4.55;100.00;94846.53;5098077;28;20185;-59
2023/01/07 06:48:23;;;;;;;1999.90;999.90;;;;;;;4.49;100.00;94826.41;5096941;28;20198;-59
2023/01/07 06:50:48;;;;;;;1999.90;999.90;;;;;;;4.45;100.00;94809.41;5097074;28;20228;-72
2023/01/07 06:53:13;;;;;;;1999.90;999.90;;;;;;;4.41;100.00;94797.78;5096914;28;20184;-70
2023/01/07 06:55:39;;;;;;;1999.90;999.90;;;;;;;4.35;100.00;94783.88;5096971;28;20176;-70
2023/01/07 06:58:04;;;;;;;1999.90;999.90;;;;;;;4.32;100.00;94781.91;5096882;28;20173;-70
2023/01/07 07:00:29;;;;;;;1999.90;999.90;;;;;;;4.31;100.00;94772.28;5096821;28;20177;-69
2023/01/07 07:02:55;;;;;;;1999.90;999.90;;;;;;;4.30;100.00;94759.13;5096601;28;20180;-71
2023/01/07 07:05:20;;;;;;;1999.90;999.90;;;;;;;4.29;100.00;94741.38;5096944;28;20228;-72
2023/01/07 07:07:46;;;;;;;1999.90;999.90;;;;;;;4.29;100.00;94735.97;5097372;28;20226;-72
2023/01/07 07:10:12;;;;;;;1999.90;999.90;;;;;;;4.28;100.00;94724.38;5097145;28;20184;-61
2023/01/07 07:12:37;;;;;;;1999.90;999.90;;;;;;;4.30;100.00;94715.91;5096508;28;20171;-58
2023/01/07 07:15:05;;;;;;;1999.90;999.90;;;;;;;4.32;100.00;94714.38;5096446;28;20283;-61
2023/01/07 07:17:30;;;;;;;1999.90;999.90;;;;;;;4.28;100.00;94710.09;5096910;28;20196;-60
2023/01/07 07:19:56;;;;;;;1999.90;999.90;;;;;;;4.27;100.00;94703.94;5096080;28;20184;-59
2023/01/07 07:22:21;;;;;;;1999.90;999.90;;;;;;;4.29;100.00;94690.03;5096407;28;20173;-61
2023/01/07 07:24:47;;;;;;;1999.90;999.90;;;;;;;4.36;100.00;94692.75;5096268;28;20177;-60
2023/01/07 07:27:12;;;;;;;1999.90;999.90;;;;;;;4.33;100.00;94688.88;5096364;28;20246;-70
2023/01/07 07:29:37;;;;;;;1999.90;999.90;;;;;;;4.30;100.00;94689.63;5095969;28;20177;-59
2023/01/07 07:32:03;;;;;;;1999.90;999.90;;;;;;;4.33;100.00;94688.13;5096092;28;20216;-59
2023/01/07 07:34:28;;;;;;;1999.90;999.90;;;;;;;4.38;100.00;94690.44;5096034;28;20196;-60
2023/01/07 07:36:54;;;;;;;1999.90;999.90;;;;;;;4.31;100.00;94690.41;5096735;28;20173;-58
2023/01/07 07:39:19;;;;;;;1999.90;999.90;;;;;;;4.30;100.00;94684.22;5095941;28;20168;-61
2023/01/07 07:41:44;;;;;;;1999.90;999.90;;;;;;;4.51;100.00;94681.59;5095965;28;20222;-60
2023/01/07 07:44:10;;;;;;;1999.90;999.90;;;;;;;4.68;100.00;94682.81;5096004;28;20172;-59
2023/01/07 07:46:35;;;;;;;1999.90;999.90;;;;;;;4.92;100.00;94687.50;5096133;28;20177;-61
2023/01/07 07:49:00;;;;;;;1999.90;999.90;;;;;;;5.33;100.00;94696.81;5095731;28;20199;-59
2023/01/07 07:51:26;;;;;;;1999.90;999.90;;;;;;;5.74;100.00;94716.91;5095946;28;20165;-59
2023/01/07 07:53:51;;;;;;;1999.90;999.90;;;;;;;6.37;100.00;94744.69;5095509;28;20247;-58
2023/01/07 07:56:17;;;;;;;1999.90;999.90;;;;;;;6.56;100.00;94851.97;5095150;28;20170;-58
2023/01/07 07:58:42;;;;;;;1999.90;999.90;;;;;;;7.02;100.00;94963.88;5095623;28;20177;-59
2023/01/07 08:01:08;;;;;;;1999.90;999.90;;;;;;;7.58;100.00;95077.06;5095756;28;20202;-58
2023/01/07 08:03:35;;;;;;;1999.90;999.90;;;;;;;7.86;100.00;95170.19;5095987;28;20186;-60
2023/01/07 08:06:03;;;;;;;1999.90;999.90;;;;;;;8.04;100.00;95251.72;5096179;28;20187;-72
2023/01/07 08:08:28;;;;;;;1999.90;999.90;;;;;;;8.26;100.00;95307.66;5095362;28;20168;-76
2023/01/07 08:10:54;;;;;;;1999.90;999.90;;;;;;;8.52;100.00;95337.19;5095157;28;20176;-77
2023/01/07 08:13:20;;;;;;;1999.90;999.90;;;;;;;8.70;100.00;95365.94;5095945;28;20197;-76
2023/01/07 08:15:46;;;;;;;1999.90;999.90;;;;;;;8.96;100.00;95379.09;5095369;28;20180;-78
2023/01/07 08:18:11;;;;;;;1999.90;999.90;;;;;;;8.98;100.00;95387.66;5094916;28;20211;-70
2023/01/07 08:20:37;;;;;;;1999.90;999.90;;;;;;;9.02;100.00;95402.03;5095302;28;20200;-73
2023/01/07 08:23:04;;;;;;;1999.90;999.90;;;;;;;8.92;100.00;95399.31;5095290;28;20174;-72
2023/01/07 08:25:31;;;;;;;1999.90;999.90;;;;;;;8.80;100.00;95397.81;5095865;28;20219;-59
2023/01/07 08:27:58;;;;;;;1999.90;999.90;;;;;;;8.98;100.00;95401.28;5095241;28;20173;-62
2023/01/07 08:30:24;;;;;;;1999.90;999.90;;;;;;;9.01;100.00;95402.44;5094656;28;20181;-60
2023/01/07 08:32:49;;;;;;;1999.90;999.90;;;;;;;8.77;100.00;95401.31;5095156;28;20202;-61
2023/01/07 08:35:15;;;;;;;1999.90;999.90;;;;;;;9.23;100.00;95396.56;5094920;28;20294;-61
2023/01/07 08:37:41;;;;;;;1999.90;999.90;;;;;;;9.23;100.00;95404.72;5094916;28;20194;-66
2023/01/07 08:40:08;;;;;;;1999.90;999.90;;;;;;;9.51;100.00;95404.59;5095340;28;20179;-82
2023/01/07 08:42:33;;;;;;;1999.90;999.90;;;;;;;9.82;100.00;95408.38;5094539;28;20209;-77
2023/01/07 08:44:59;;;;;;;1999.90;999.90;;;;;;;9.96;100.00;95411.81;5095358;28;20254;-60
2023/01/07 08:47:27;;;;;;;1999.90;999.90;;;;;;;10.22;100.00;95415.16;5094584;28;20188;-62
2023/01/07 08:49:53;;;;;;;1999.90;999.90;;;;;;;10.64;100.00;95412.94;5096108;28;20170;-60
2023/01/07 08:52:20;;;;;;;1999.90;999.90;;;;;;;10.95;100.00;95408.34;5094612;28;20181;-60
2023/01/07 08:54:46;;;;;;;1999.90;999.90;;;;;;;11.35;100.00;95405.59;5095147;28;20201;-59
2023/01/07 08:57:11;;;;;;;1999.90;999.90;;;;;;;11.25;100.00;95414.66;5095274;28;20173;-60
2023/01/07 08:59:39;;;;;;;1999.90;999.90;;;;;;;11.11;100.00;95405.84;5094304;28;20168;-71
2023/01/07 09:02:06;;;;;;;1999.90;999.90;;;;;;;11.49;100.00;95404.66;5094206;28;20185;-61
2023/01/07 09:04:31;;;;;;;1999.90;999.90;;;;;;;11.79;100.00;95412.91;5095167;28;20198;-61
2023/01/07 09:06:56;;;;;;;1999.90;999.90;;;;;;;12.03;100.00;95409.88;5094412;28;20173;-60
2023/01/07 09:09:22;;;;;;;1999.90;999.90;;;;;;;11.95;100.00;95415.84;5094086;28;20172;-59
2023/01/07 09:11:47;;;;;;;1999.90;999.90;;;;;;;11.93;100.00;95415.47;5094679;28;20180;-60
2023/01/07 09:14:13;;;;;;;1999.90;999.90;;;;;;;11.97;100.00;95410.72;5094059;28;20307;-61
2023/01/07 09:16:40;;;;;;;1999.90;999.90;;;;;;;11.93;100.00;95418.19;5094850;28;20259;-60
2023/01/07 09:19:05;;;;;;;1999.90;999.90;;;;;;;11.63;100.00;95415.44;5094684;28;20168;-74
2023/01/07 09:21:31;;;;;;;1999.90;999.90;;;;;;;11.81;100.00;95413.28;5094237;28;20179;-62
2023/01/07 09:23:56;;;;;;;1999.90;999.90;;;;;;;11.77;100.00;95413.31;5095645;28;20172;-62
2023/01/07 09:26:21;;;;;;;1999.90;999.90;;;;;;;12.27;100.00;95416.94;5093967;28;20234;-62
2023/01/07 09:28:47;;;;;;;1999.90;999.90;;;;;;;11.81;100.00;95416.00;5094065;28;20179;-62
2023/01/07 09:31:12;;;;;;;1999.90;999.90;;;;;;;11.89;100.00;95415.53;5093507;28;20220;-61
2023/01/07 09:33:39;;;;;;;1999.90;999.90;;;;;;;12.10;100.00;95411.72;5094024;28;20189;-61
2023/01/07 09:36:19;;;;;;;1999.90;999.90;;;;;;;12.17;100.00;95417.09;5092600;27;21081;-61
2023/01/07 09:38:44;;;;;;;1999.90;999.90;;;;;;;12.37;100.00;95409.75;5091576;28;20189;-69
2023/01/07 09:41:27;;;;;;;1999.90;999.90;;;;;;;12.68;100.00;95412.00;5091002;28;20681;-72
2023/01/07 09:43:58;;;;;;;1999.90;999.90;;;;;;;12.37;100.00;95409.75;5092096;28;20159;-71
2023/01/07 09:46:24;;;;;;;1999.90;999.90;;;;;;;12.09;100.00;95401.97;5091324;28;20178;-71
2023/01/07 09:48:56;;;;;;;1999.90;999.90;;;;;;;12.17;100.00;95400.66;5091378;28;20185;-75
2023/01/07 09:51:33;;;;;;;1999.90;999.90;;;;;;;12.24;100.00;95395.84;5091662;28;20180;-82
2023/01/07 09:54:01;;;;;;;1999.90;999.90;;;;;;;12.11;100.00;95388.63;5090433;28;20180;-61
2023/01/07 09:56:29;;;;;;;1999.90;999.90;;;;;;;11.99;100.00;95387.22;5091242;28;20176;-75
2023/01/07 09:58:57;;;;;;;1999.90;999.90;;;;;;;12.02;100.00;95393.84;5090949;28;20222;-76
2023/01/07 10:01:33;;;;;;;1999.90;999.90;;;;;;;12.00;100.00;95386.03;5090988;28;20208;-73
2023/01/07 10:04:09;;;;;;;1999.90;999.90;;;;;;;11.34;100.00;95375.91;5090537;28;20692;-74
2023/01/07 10:06:44;;;;;;;1999.90;999.90;;;;;;;11.39;100.00;95375.47;5091171;28;20193;-71
2023/01/07 10:09:31;;;;;;;1999.90;999.90;;;;;;;11.63;100.00;95360.75;5090937;28;20172;-71
2023/01/07 10:12:12;;;;;;;1999.90;999.90;;;;;;;11.77;100.00;95360.56;5090880;28;20173;-69
2023/01/07 10:14:37;;;;;;;1999.90;999.90;;;;;;;11.84;100.00;95346.78;5090825;28;20226;-64
2023/01/07 10:17:26;;;;;;;1999.90;999.90;;;;;;;11.84;100.00;95344.81;5090161;28;20192;-64
2023/01/07 10:20:08;;;;;;;1999.90;999.90;;;;;;;12.47;100.00;95346.63;5090743;28;20537;-67
2023/01/07 10:22:55;;;;;;;1999.90;999.90;;;;;;;12.44;100.00;95350.19;5090840;28;20199;-66
2023/01/07 10:25:25;;;;;;;1999.90;999.90;;;;;;;12.11;100.00;95342.88;5090424;28;20177;-72
2023/01/07 10:27:53;;;;;;;1999.90;999.90;;;;;;;12.36;100.00;95337.00;5090691;28;20623;-68
2023/01/07 10:30:23;;;;;;;1999.90;999.90;;;;;;;12.15;100.00;95331.84;5090187;28;20169;-69
2023/01/07 10:32:57;;;;;;;1999.90;999.90;;;;;;;12.16;100.00;95328.72;5090730;28;20184;-76
2023/01/07 10:35:26;;;;;;;1999.90;999.90;;;;;;;12.23;100.00;95331.34;5089809;28;20293;-76
2023/01/07 10:37:56;;;;;;;1999.90;999.90;;;;;;;12.00;100.00;95330.53;5089890;28;20173;-81
2023/01/07 10:40:41;;;;;;;1999.90;999.90;;;;;;;11.60;100.00;95320.50;5089765;28;20238;-72
2023/01/07 10:43:29;;;;;;;1999.90;999.90;;;;;;;11.12;100.00;95317.22;5090391;28;20176;-74
2023/01/07 10:46:03;;;;;;;1999.90;999.90;;;;;;;10.80;100.00;95322.25;5086161;28;20188;-75
2023/01/07 10:48:43;;;;;;;1999.90;999.90;;;;;;;10.07;100.00;95311.59;5076410;28;20702;-78
2023/01/07 10:51:33;;;;;;;1999.90;999.90;;;;;;;9.58;100.00;95317.34;5076846;28;20176;-65
2023/01/07 10:54:13;;;;;;;1999.90;999.90;;;;;;;9.67;100.00;95309.50;5075905;28;20177;-67
2023/01/07 10:56:43;;;;;;;1999.90;999.90;;;;;;;9.44;100.00;95301.06;5076255;28;20179;-66
2023/01/07 10:59:18;;;;;;;1999.90;999.90;;;;;;;9.31;100.00;95304.63;5075878;28;20200;-66
2023/01/07 11:01:49;;;;;;;1999.90;999.90;;;;;;;9.35;100.00;95297.22;5076011;28;20165;-64